sensor_id;sensor_type;location;lat;lon;timestamp;pressure;altitude;pressure_sealevel;temperature
63220;BMP180;49320;52.512;13.448;2023-05-23T00:02:13;100792.00;;;26.20
63220;BMP180;49320;52.512;13.448;2023-05-23T00:04:41;100792.00;;;26.10
63220;BMP180;49320;52.512;13.448;2023-05-23T00:07:08;100792.00;;;26.10
63220;BMP180;49320;52.512;13.448;2023-05-23T00:09:35;100785.00;;;26.10
63220;BMP180;49320;52.512;13.448;2023-05-23T00:12:02;100795.00;;;26.10
63220;BMP180;49320;52.512;13.448;2023-05-23T00:14:29;100788.00;;;26.00
63220;BMP180;49320;52.512;13.448;2023-05-23T00:16:59;100783.00;;;26.00
63220;BMP180;49320;52.512;13.448;2023-05-23T00:19:27;100785.00;;;26.00
63220;BMP180;49320;52.512;13.448;2023-05-23T00:21:54;100785.00;;;26.00
63220;BMP180;49320;52.512;13.448;2023-05-23T00:24:24;100783.00;;;26.00
63220;BMP180;49320;52.512;13.448;2023-05-23T00:26:51;100774.00;;;26.00
63220;BMP180;49320;52.512;13.448;2023-05-23T00:29:18;100771.00;;;26.00
63220;BMP180;49320;52.512;13.448;2023-05-23T00:31:45;100773.00;;;25.90
63220;BMP180;49320;52.512;13.448;2023-05-23T00:34:16;100772.00;;;25.90
63220;BMP180;49320;52.512;13.448;2023-05-23T00:36:44;100767.00;;;25.90
63220;BMP180;49320;52.512;13.448;2023-05-23T00:39:13;100774.00;;;25.80
63220;BMP180;49320;52.512;13.448;2023-05-23T00:41:47;100765.00;;;25.80
63220;BMP180;49320;52.512;13.448;2023-05-23T00:44:19;100762.00;;;25.80
63220;BMP180;49320;52.512;13.448;2023-05-23T00:46:52;100771.00;;;25.70
63220;BMP180;49320;52.512;13.448;2023-05-23T00:49:21;100773.00;;;25.70
63220;BMP180;49320;52.512;13.448;2023-05-23T00:51:49;100769.00;;;25.70
63220;BMP180;49320;52.512;13.448;2023-05-23T00:54:35;100760.00;;;25.60
63220;BMP180;49320;52.512;13.448;2023-05-23T00:57:02;100753.00;;;25.60
63220;BMP180;49320;52.512;13.448;2023-05-23T00:59:30;100753.00;;;25.50
63220;BMP180;49320;52.512;13.448;2023-05-23T01:01:59;100757.00;;;25.50
63220;BMP180;49320;52.512;13.448;2023-05-23T01:04:26;100754.00;;;25.50
63220;BMP180;49320;52.512;13.448;2023-05-23T01:06:54;100741.00;;;25.40
63220;BMP180;49320;52.512;13.448;2023-05-23T01:09:24;100747.00;;;25.40
63220;BMP180;49320;52.512;13.448;2023-05-23T01:12:16;100737.00;;;25.40
63220;BMP180;49320;52.512;13.448;2023-05-23T01:15:01;100746.00;;;25.30
63220;BMP180;49320;52.512;13.448;2023-05-23T01:17:49;100742.00;;;25.30
63220;BMP180;49320;52.512;13.448;2023-05-23T01:20:26;100730.00;;;25.30
63220;BMP180;49320;52.512;13.448;2023-05-23T01:23:05;100729.00;;;25.30
63220;BMP180;49320;52.512;13.448;2023-05-23T01:28:45;100729.00;;;25.30
63220;BMP180;49320;52.512;13.448;2023-05-23T01:31:14;100732.00;;;25.30
63220;BMP180;49320;52.512;13.448;2023-05-23T01:33:43;100730.00;;;25.30
63220;BMP180;49320;52.512;13.448;2023-05-23T01:36:12;100720.00;;;25.30
63220;BMP180;49320;52.512;13.448;2023-05-23T01:38:40;100727.00;;;25.30
63220;BMP180;49320;52.512;13.448;2023-05-23T01:41:08;100725.00;;;25.30
63220;BMP180;49320;52.512;13.448;2023-05-23T01:43:35;100718.00;;;25.30
63220;BMP180;49320;52.512;13.448;2023-05-23T01:46:04;100716.00;;;25.30
63220;BMP180;49320;52.512;13.448;2023-05-23T01:48:34;100716.00;;;25.30
63220;BMP180;49320;52.512;13.448;2023-05-23T01:51:02;100717.00;;;25.30
63220;BMP180;49320;52.512;13.448;2023-05-23T01:53:30;100702.00;;;25.30
63220;BMP180;49320;52.512;13.448;2023-05-23T01:55:57;100709.00;;;25.20
63220;BMP180;49320;52.512;13.448;2023-05-23T01:58:29;100708.00;;;25.20
63220;BMP180;49320;52.512;13.448;2023-05-23T02:00:56;100707.00;;;25.20
63220;BMP180;49320;52.512;13.448;2023-05-23T02:03:23;100709.00;;;25.20
63220;BMP180;49320;52.512;13.448;2023-05-23T02:05:50;100709.00;;;25.20
63220;BMP180;49320;52.512;13.448;2023-05-23T02:08:17;100709.00;;;25.20
63220;BMP180;49320;52.512;13.448;2023-05-23T02:10:43;100705.00;;;25.20
63220;BMP180;49320;52.512;13.448;2023-05-23T02:13:10;100710.00;;;25.20
63220;BMP180;49320;52.512;13.448;2023-05-23T02:15:37;100699.00;;;25.20
63220;BMP180;49320;52.512;13.448;2023-05-23T02:18:04;100711.00;;;25.20
63220;BMP180;49320;52.512;13.448;2023-05-23T02:20:32;100715.00;;;25.20
63220;BMP180;49320;52.512;13.448;2023-05-23T02:22:59;100718.00;;;25.20
63220;BMP180;49320;52.512;13.448;2023-05-23T02:25:25;100719.00;;;25.20
63220;BMP180;49320;52.512;13.448;2023-05-23T02:27:52;100717.00;;;25.20
63220;BMP180;49320;52.512;13.448;2023-05-23T02:30:19;100723.00;;;25.30
63220;BMP180;49320;52.512;13.448;2023-05-23T02:32:46;100716.00;;;25.20
63220;BMP180;49320;52.512;13.448;2023-05-23T02:35:13;100724.00;;;25.30
63220;BMP180;49320;52.512;13.448;2023-05-23T02:37:39;100712.00;;;25.20
63220;BMP180;49320;52.512;13.448;2023-05-23T02:40:07;100709.00;;;25.30
63220;BMP180;49320;52.512;13.448;2023-05-23T02:42:34;100706.00;;;25.20
63220;BMP180;49320;52.512;13.448;2023-05-23T02:45:01;100714.00;;;25.20
63220;BMP180;49320;52.512;13.448;2023-05-23T02:47:27;100708.00;;;25.20
63220;BMP180;49320;52.512;13.448;2023-05-23T02:49:54;100704.00;;;25.20
63220;BMP180;49320;52.512;13.448;2023-05-23T02:52:21;100704.00;;;25.10
63220;BMP180;49320;52.512;13.448;2023-05-23T02:54:49;100701.00;;;25.10
63220;BMP180;49320;52.512;13.448;2023-05-23T02:57:15;100709.00;;;25.10
63220;BMP180;49320;52.512;13.448;2023-05-23T02:59:42;100698.00;;;25.10
63220;BMP180;49320;52.512;13.448;2023-05-23T03:02:09;100699.00;;;25.10
63220;BMP180;49320;52.512;13.448;2023-05-23T03:04:37;100699.00;;;25.10
63220;BMP180;49320;52.512;13.448;2023-05-23T03:07:03;100701.00;;;25.10
63220;BMP180;49320;52.512;13.448;2023-05-23T03:09:42;100695.00;;;25.10
63220;BMP180;49320;52.512;13.448;2023-05-23T03:12:09;100691.00;;;25.10
63220;BMP180;49320;52.512;13.448;2023-05-23T03:14:36;100688.00;;;25.10
63220;BMP180;49320;52.512;13.448;2023-05-23T03:17:03;100702.00;;;25.10
63220;BMP180;49320;52.512;13.448;2023-05-23T03:19:30;100696.00;;;25.00
63220;BMP180;49320;52.512;13.448;2023-05-23T03:22:01;100702.00;;;25.00
63220;BMP180;49320;52.512;13.448;2023-05-23T03:24:28;100705.00;;;25.10
63220;BMP180;49320;52.512;13.448;2023-05-23T03:26:54;100707.00;;;25.00
63220;BMP180;49320;52.512;13.448;2023-05-23T03:29:21;100697.00;;;25.00
63220;BMP180;49320;52.512;13.448;2023-05-23T03:31:48;100692.00;;;25.00
63220;BMP180;49320;52.512;13.448;2023-05-23T03:34:15;100698.00;;;25.00
63220;BMP180;49320;52.512;13.448;2023-05-23T03:36:42;100688.00;;;25.00
63220;BMP180;49320;52.512;13.448;2023-05-23T03:39:09;100690.00;;;25.00
63220;BMP180;49320;52.512;13.448;2023-05-23T03:41:36;100702.00;;;25.00
63220;BMP180;49320;52.512;13.448;2023-05-23T03:44:03;100688.00;;;25.00
63220;BMP180;49320;52.512;13.448;2023-05-23T03:46:30;100679.00;;;24.90
63220;BMP180;49320;52.512;13.448;2023-05-23T03:48:57;100688.00;;;24.90
63220;BMP180;49320;52.512;13.448;2023-05-23T03:51:24;100676.00;;;24.90
63220;BMP180;49320;52.512;13.448;2023-05-23T03:53:51;100683.00;;;24.90
63220;BMP180;49320;52.512;13.448;2023-05-23T03:56:18;100679.00;;;24.80
63220;BMP180;49320;52.512;13.448;2023-05-23T03:58:45;100673.00;;;24.80
63220;BMP180;49320;52.512;13.448;2023-05-23T04:01:12;100676.00;;;24.80
63220;BMP180;49320;52.512;13.448;2023-05-23T04:03:39;100670.00;;;24.80
63220;BMP180;49320;52.512;13.448;2023-05-23T04:06:07;100675.00;;;24.80
63220;BMP180;49320;52.512;13.448;2023-05-23T04:08:33;100665.00;;;24.80
63220;BMP180;49320;52.512;13.448;2023-05-23T04:11:01;100671.00;;;24.80
63220;BMP180;49320;52.512;13.448;2023-05-23T04:13:28;100676.00;;;24.80
63220;BMP180;49320;52.512;13.448;2023-05-23T04:15:58;100682.00;;;24.80
63220;BMP180;49320;52.512;13.448;2023-05-23T04:18:27;100680.00;;;24.80
63220;BMP180;49320;52.512;13.448;2023-05-23T04:20:54;100679.00;;;24.80
63220;BMP180;49320;52.512;13.448;2023-05-23T04:23:21;100678.00;;;24.80
63220;BMP180;49320;52.512;13.448;2023-05-23T04:25:47;100675.00;;;24.80
63220;BMP180;49320;52.512;13.448;2023-05-23T04:28:14;100676.00;;;24.80
63220;BMP180;49320;52.512;13.448;2023-05-23T04:30:43;100693.00;;;24.80
63220;BMP180;49320;52.512;13.448;2023-05-23T04:33:10;100702.00;;;24.80
63220;BMP180;49320;52.512;13.448;2023-05-23T04:35:37;100691.00;;;24.90
63220;BMP180;49320;52.512;13.448;2023-05-23T04:38:06;100695.00;;;24.90
63220;BMP180;49320;52.512;13.448;2023-05-23T04:40:33;100685.00;;;24.90
63220;BMP180;49320;52.512;13.448;2023-05-23T04:43:00;100683.00;;;24.90
63220;BMP180;49320;52.512;13.448;2023-05-23T04:45:27;100680.00;;;25.00
63220;BMP180;49320;52.512;13.448;2023-05-23T04:47:54;100678.00;;;25.00
63220;BMP180;49320;52.512;13.448;2023-05-23T04:50:22;100689.00;;;25.00
63220;BMP180;49320;52.512;13.448;2023-05-23T04:52:48;100668.00;;;25.00
63220;BMP180;49320;52.512;13.448;2023-05-23T04:55:16;100682.00;;;25.00
63220;BMP180;49320;52.512;13.448;2023-05-23T04:57:43;100680.00;;;25.00
63220;BMP180;49320;52.512;13.448;2023-05-23T05:00:10;100681.00;;;25.00
63220;BMP180;49320;52.512;13.448;2023-05-23T05:02:40;100677.00;;;25.00
63220;BMP180;49320;52.512;13.448;2023-05-23T05:05:08;100675.00;;;24.90
63220;BMP180;49320;52.512;13.448;2023-05-23T05:07:35;100663.00;;;24.90
63220;BMP180;49320;52.512;13.448;2023-05-23T05:10:02;100672.00;;;24.90
63220;BMP180;49320;52.512;13.448;2023-05-23T05:12:29;100659.00;;;24.90
63220;BMP180;49320;52.512;13.448;2023-05-23T05:14:56;100655.00;;;24.80
63220;BMP180;49320;52.512;13.448;2023-05-23T05:17:23;100663.00;;;24.80
63220;BMP180;49320;52.512;13.448;2023-05-23T05:19:50;100674.00;;;24.80
63220;BMP180;49320;52.512;13.448;2023-05-23T05:22:17;100671.00;;;24.80
63220;BMP180;49320;52.512;13.448;2023-05-23T05:24:44;100671.00;;;24.80
63220;BMP180;49320;52.512;13.448;2023-05-23T05:27:11;100678.00;;;24.80
63220;BMP180;49320;52.512;13.448;2023-05-23T05:29:37;100686.00;;;24.80
63220;BMP180;49320;52.512;13.448;2023-05-23T05:32:04;100683.00;;;24.90
63220;BMP180;49320;52.512;13.448;2023-05-23T05:34:34;100679.00;;;24.90
63220;BMP180;49320;52.512;13.448;2023-05-23T05:37:03;100684.00;;;24.90
63220;BMP180;49320;52.512;13.448;2023-05-23T05:39:30;100687.00;;;24.90
63220;BMP180;49320;52.512;13.448;2023-05-23T05:41:57;100689.00;;;24.90
63220;BMP180;49320;52.512;13.448;2023-05-23T05:44:24;100692.00;;;24.90
63220;BMP180;49320;52.512;13.448;2023-05-23T05:46:52;100692.00;;;24.90
63220;BMP180;49320;52.512;13.448;2023-05-23T05:49:19;100703.00;;;24.90
63220;BMP180;49320;52.512;13.448;2023-05-23T05:51:46;100696.00;;;24.90
63220;BMP180;49320;52.512;13.448;2023-05-23T05:54:13;100692.00;;;24.90
63220;BMP180;49320;52.512;13.448;2023-05-23T05:56:39;100686.00;;;25.00
63220;BMP180;49320;52.512;13.448;2023-05-23T05:59:07;100684.00;;;25.00
63220;BMP180;49320;52.512;13.448;2023-05-23T06:01:34;100676.00;;;25.00
63220;BMP180;49320;52.512;13.448;2023-05-23T06:04:01;100683.00;;;25.00
63220;BMP180;49320;52.512;13.448;2023-05-23T06:06:28;100675.00;;;25.10
63220;BMP180;49320;52.512;13.448;2023-05-23T06:08:55;100673.00;;;25.10
63220;BMP180;49320;52.512;13.448;2023-05-23T06:11:23;100671.00;;;25.10
63220;BMP180;49320;52.512;13.448;2023-05-23T06:13:49;100679.00;;;25.10
63220;BMP180;49320;52.512;13.448;2023-05-23T06:16:16;100676.00;;;25.20
63220;BMP180;49320;52.512;13.448;2023-05-23T06:18:43;100666.00;;;25.20
63220;BMP180;49320;52.512;13.448;2023-05-23T06:21:10;100664.00;;;25.20
63220;BMP180;49320;52.512;13.448;2023-05-23T06:23:37;100672.00;;;25.20
63220;BMP180;49320;52.512;13.448;2023-05-23T06:26:04;100669.00;;;25.30
63220;BMP180;49320;52.512;13.448;2023-05-23T06:28:39;100671.00;;;25.30
63220;BMP180;49320;52.512;13.448;2023-05-23T06:31:06;100677.00;;;25.30
63220;BMP180;49320;52.512;13.448;2023-05-23T06:33:35;100664.00;;;25.30
63220;BMP180;49320;52.512;13.448;2023-05-23T06:36:02;100669.00;;;25.40
63220;BMP180;49320;52.512;13.448;2023-05-23T06:38:30;100664.00;;;25.40
63220;BMP180;49320;52.512;13.448;2023-05-23T06:41:01;100657.00;;;25.40
63220;BMP180;49320;52.512;13.448;2023-05-23T06:43:29;100667.00;;;25.50
63220;BMP180;49320;52.512;13.448;2023-05-23T06:45:56;100670.00;;;25.60
63220;BMP180;49320;52.512;13.448;2023-05-23T06:48:22;100670.00;;;25.60
63220;BMP180;49320;52.512;13.448;2023-05-23T06:50:50;100668.00;;;25.70
63220;BMP180;49320;52.512;13.448;2023-05-23T06:53:17;100672.00;;;25.80
63220;BMP180;49320;52.512;13.448;2023-05-23T06:55:45;100669.00;;;25.90
63220;BMP180;49320;52.512;13.448;2023-05-23T06:58:11;100675.00;;;26.10
63220;BMP180;49320;52.512;13.448;2023-05-23T07:00:38;100670.00;;;26.20
63220;BMP180;49320;52.512;13.448;2023-05-23T07:03:06;100672.00;;;26.30
63220;BMP180;49320;52.512;13.448;2023-05-23T07:05:33;100677.00;;;26.50
63220;BMP180;49320;52.512;13.448;2023-05-23T07:08:00;100667.00;;;26.60
63220;BMP180;49320;52.512;13.448;2023-05-23T07:10:27;100682.00;;;26.70
63220;BMP180;49320;52.512;13.448;2023-05-23T07:12:54;100677.00;;;26.90
63220;BMP180;49320;52.512;13.448;2023-05-23T07:15:22;100677.00;;;27.00
63220;BMP180;49320;52.512;13.448;2023-05-23T07:17:48;100679.00;;;27.20
63220;BMP180;49320;52.512;13.448;2023-05-23T07:20:15;100678.00;;;27.30
63220;BMP180;49320;52.512;13.448;2023-05-23T07:22:42;100679.00;;;27.40
63220;BMP180;49320;52.512;13.448;2023-05-23T07:25:09;100680.00;;;27.40
63220;BMP180;49320;52.512;13.448;2023-05-23T07:27:36;100683.00;;;27.50
63220;BMP180;49320;52.512;13.448;2023-05-23T07:30:03;100675.00;;;27.50
63220;BMP180;49320;52.512;13.448;2023-05-23T07:32:30;100680.00;;;27.60
63220;BMP180;49320;52.512;13.448;2023-05-23T07:34:57;100677.00;;;27.70
63220;BMP180;49320;52.512;13.448;2023-05-23T07:37:24;100669.00;;;27.80
63220;BMP180;49320;52.512;13.448;2023-05-23T07:39:53;100675.00;;;27.90
63220;BMP180;49320;52.512;13.448;2023-05-23T07:42:20;100669.00;;;27.90
63220;BMP180;49320;52.512;13.448;2023-05-23T07:44:46;100660.00;;;27.90
63220;BMP180;49320;52.512;13.448;2023-05-23T07:47:13;100666.00;;;28.00
63220;BMP180;49320;52.512;13.448;2023-05-23T07:49:40;100669.00;;;28.10
63220;BMP180;49320;52.512;13.448;2023-05-23T07:52:07;100678.00;;;28.20
63220;BMP180;49320;52.512;13.448;2023-05-23T07:54:34;100673.00;;;28.20
63220;BMP180;49320;52.512;13.448;2023-05-23T07:57:01;100673.00;;;28.30
63220;BMP180;49320;52.512;13.448;2023-05-23T07:59:27;100683.00;;;28.30
63220;BMP180;49320;52.512;13.448;2023-05-23T08:01:55;100677.00;;;28.30
63220;BMP180;49320;52.512;13.448;2023-05-23T08:04:22;100686.00;;;28.40
63220;BMP180;49320;52.512;13.448;2023-05-23T08:06:49;100686.00;;;28.40
63220;BMP180;49320;52.512;13.448;2023-05-23T08:09:31;100698.00;;;28.30
63220;BMP180;49320;52.512;13.448;2023-05-23T08:11:58;100695.00;;;28.30
63220;BMP180;49320;52.512;13.448;2023-05-23T08:14:26;100701.00;;;28.30
63220;BMP180;49320;52.512;13.448;2023-05-23T08:17:13;100690.00;;;28.20
63220;BMP180;49320;52.512;13.448;2023-05-23T08:19:41;100700.00;;;28.20
63220;BMP180;49320;52.512;13.448;2023-05-23T08:22:08;100687.00;;;28.20
63220;BMP180;49320;52.512;13.448;2023-05-23T08:24:35;100692.00;;;28.20
63220;BMP180;49320;52.512;13.448;2023-05-23T08:27:02;100701.00;;;28.10
63220;BMP180;49320;52.512;13.448;2023-05-23T08:29:29;100698.00;;;28.10
63220;BMP180;49320;52.512;13.448;2023-05-23T08:31:56;100704.00;;;28.10
63220;BMP180;49320;52.512;13.448;2023-05-23T08:34:23;100704.00;;;28.10
63220;BMP180;49320;52.512;13.448;2023-05-23T08:36:50;100705.00;;;28.10
63220;BMP180;49320;52.512;13.448;2023-05-23T08:39:18;100714.00;;;28.20
63220;BMP180;49320;52.512;13.448;2023-05-23T08:41:45;100724.00;;;28.30
63220;BMP180;49320;52.512;13.448;2023-05-23T08:44:12;100719.00;;;28.30
63220;BMP180;49320;52.512;13.448;2023-05-23T08:46:45;100718.00;;;28.30
63220;BMP180;49320;52.512;13.448;2023-05-23T08:49:16;100718.00;;;28.20
63220;BMP180;49320;52.512;13.448;2023-05-23T08:51:45;100724.00;;;28.20
63220;BMP180;49320;52.512;13.448;2023-05-23T08:54:12;100722.00;;;28.20
63220;BMP180;49320;52.512;13.448;2023-05-23T08:56:39;100724.00;;;28.20
63220;BMP180;49320;52.512;13.448;2023-05-23T08:59:08;100722.00;;;28.30
63220;BMP180;49320;52.512;13.448;2023-05-23T09:01:37;100731.00;;;28.40
63220;BMP180;49320;52.512;13.448;2023-05-23T09:04:05;100732.00;;;28.40
63220;BMP180;49320;52.512;13.448;2023-05-23T09:06:34;100727.00;;;28.40
63220;BMP180;49320;52.512;13.448;2023-05-23T09:09:00;100737.00;;;28.40
63220;BMP180;49320;52.512;13.448;2023-05-23T09:11:28;100743.00;;;28.40
63220;BMP180;49320;52.512;13.448;2023-05-23T09:13:55;100737.00;;;28.40
63220;BMP180;49320;52.512;13.448;2023-05-23T09:16:23;100745.00;;;28.40
63220;BMP180;49320;52.512;13.448;2023-05-23T09:18:57;100738.00;;;28.40
63220;BMP180;49320;52.512;13.448;2023-05-23T09:21:26;100744.00;;;28.50
63220;BMP180;49320;52.512;13.448;2023-05-23T09:23:54;100737.00;;;28.50
63220;BMP180;49320;52.512;13.448;2023-05-23T09:26:21;100742.00;;;28.50
63220;BMP180;49320;52.512;13.448;2023-05-23T09:28:48;100739.00;;;28.50
63220;BMP180;49320;52.512;13.448;2023-05-23T09:31:14;100736.00;;;28.60
63220;BMP180;49320;52.512;13.448;2023-05-23T09:33:46;100732.00;;;28.70
63220;BMP180;49320;52.512;13.448;2023-05-23T09:36:14;100735.00;;;28.90
63220;BMP180;49320;52.512;13.448;2023-05-23T09:38:44;100744.00;;;29.00
63220;BMP180;49320;52.512;13.448;2023-05-23T09:41:12;100732.00;;;29.10
63220;BMP180;49320;52.512;13.448;2023-05-23T09:43:49;100742.00;;;29.20
63220;BMP180;49320;52.512;13.448;2023-05-23T09:46:18;100741.00;;;29.20
63220;BMP180;49320;52.512;13.448;2023-05-23T09:48:49;100743.00;;;29.30
63220;BMP180;49320;52.512;13.448;2023-05-23T09:51:20;100738.00;;;29.30
63220;BMP180;49320;52.512;13.448;2023-05-23T09:53:48;100727.00;;;29.30
63220;BMP180;49320;52.512;13.448;2023-05-23T09:56:16;100731.00;;;29.40
63220;BMP180;49320;52.512;13.448;2023-05-23T09:58:48;100737.00;;;29.50
63220;BMP180;49320;52.512;13.448;2023-05-23T10:01:16;100737.00;;;29.50
63220;BMP180;49320;52.512;13.448;2023-05-23T10:03:50;100739.00;;;29.60
63220;BMP180;49320;52.512;13.448;2023-05-23T10:06:49;100740.00;;;29.50
63220;BMP180;49320;52.512;13.448;2023-05-23T10:09:22;100738.00;;;29.50
63220;BMP180;49320;52.512;13.448;2023-05-23T10:12:36;100734.00;;;29.50
63220;BMP180;49320;52.512;13.448;2023-05-23T10:15:08;100744.00;;;29.40
63220;BMP180;49320;52.512;13.448;2023-05-23T10:18:20;100736.00;;;29.30
63220;BMP180;49320;52.512;13.448;2023-05-23T10:20:49;100743.00;;;29.30
63220;BMP180;49320;52.512;13.448;2023-05-23T10:23:20;100735.00;;;29.30
63220;BMP180;49320;52.512;13.448;2023-05-23T10:25:47;100751.00;;;29.40
63220;BMP180;49320;52.512;13.448;2023-05-23T10:28:14;100753.00;;;29.40
63220;BMP180;49320;52.512;13.448;2023-05-23T10:30:42;100750.00;;;29.50
63220;BMP180;49320;52.512;13.448;2023-05-23T10:33:11;100754.00;;;29.50
63220;BMP180;49320;52.512;13.448;2023-05-23T10:36:01;100754.00;;;29.60
63220;BMP180;49320;52.512;13.448;2023-05-23T10:38:41;100741.00;;;29.60
63220;BMP180;49320;52.512;13.448;2023-05-23T10:41:22;100754.00;;;29.60
63220;BMP180;49320;52.512;13.448;2023-05-23T10:44:06;100741.00;;;29.70
63220;BMP180;49320;52.512;13.448;2023-05-23T10:46:54;100747.00;;;29.80
63220;BMP180;49320;52.512;13.448;2023-05-23T10:49:45;100751.00;;;29.80
63220;BMP180;49320;52.512;13.448;2023-05-23T10:52:18;100746.00;;;29.80
63220;BMP180;49320;52.512;13.448;2023-05-23T10:54:52;100745.00;;;29.80
63220;BMP180;49320;52.512;13.448;2023-05-23T10:57:25;100764.00;;;29.80
63220;BMP180;49320;52.512;13.448;2023-05-23T10:59:55;100751.00;;;29.70
63220;BMP180;49320;52.512;13.448;2023-05-23T11:02:27;100767.00;;;29.70
63220;BMP180;49320;52.512;13.448;2023-05-23T11:05:20;100768.00;;;29.60
63220;BMP180;49320;52.512;13.448;2023-05-23T11:08:10;100768.00;;;29.60
63220;BMP180;49320;52.512;13.448;2023-05-23T11:11:01;100769.00;;;29.50
63220;BMP180;49320;52.512;13.448;2023-05-23T11:13:57;100761.00;;;29.40
63220;BMP180;49320;52.512;13.448;2023-05-23T11:16:31;100768.00;;;29.30
63220;BMP180;49320;52.512;13.448;2023-05-23T11:21:48;100771.00;;;29.10
63220;BMP180;49320;52.512;13.448;2023-05-23T11:24:16;100771.00;;;29.10
63220;BMP180;49320;52.512;13.448;2023-05-23T11:26:57;100772.00;;;29.10
63220;BMP180;49320;52.512;13.448;2023-05-23T11:29:29;100779.00;;;29.00
63220;BMP180;49320;52.512;13.448;2023-05-23T11:31:56;100773.00;;;28.90
63220;BMP180;49320;52.512;13.448;2023-05-23T11:34:26;100765.00;;;28.80
63220;BMP180;49320;52.512;13.448;2023-05-23T11:36:54;100767.00;;;28.70
63220;BMP180;49320;52.512;13.448;2023-05-23T11:39:22;100769.00;;;28.60
63220;BMP180;49320;52.512;13.448;2023-05-23T11:42:00;100778.00;;;28.60
63220;BMP180;49320;52.512;13.448;2023-05-23T11:44:27;100784.00;;;28.50
63220;BMP180;49320;52.512;13.448;2023-05-23T11:47:05;100776.00;;;28.50
63220;BMP180;49320;52.512;13.448;2023-05-23T11:49:35;100782.00;;;28.40
63220;BMP180;49320;52.512;13.448;2023-05-23T11:52:06;100783.00;;;28.40
63220;BMP180;49320;52.512;13.448;2023-05-23T11:54:33;100786.00;;;28.30
63220;BMP180;49320;52.512;13.448;2023-05-23T11:57:01;100786.00;;;28.20
63220;BMP180;49320;52.512;13.448;2023-05-23T11:59:29;100786.00;;;28.20
63220;BMP180;49320;52.512;13.448;2023-05-23T12:01:56;100790.00;;;28.30
63220;BMP180;49320;52.512;13.448;2023-05-23T12:04:24;100783.00;;;28.30
63220;BMP180;49320;52.512;13.448;2023-05-23T12:06:52;100797.00;;;28.40
63220;BMP180;49320;52.512;13.448;2023-05-23T12:09:19;100787.00;;;28.30
63220;BMP180;49320;52.512;13.448;2023-05-23T12:11:48;100791.00;;;28.30
63220;BMP180;49320;52.512;13.448;2023-05-23T12:14:16;100803.00;;;28.30
63220;BMP180;49320;52.512;13.448;2023-05-23T12:16:45;100795.00;;;28.30
63220;BMP180;49320;52.512;13.448;2023-05-23T12:19:15;100788.00;;;28.20
63220;BMP180;49320;52.512;13.448;2023-05-23T12:21:45;100795.00;;;28.30
63220;BMP180;49320;52.512;13.448;2023-05-23T12:24:20;100805.00;;;28.20
63220;BMP180;49320;52.512;13.448;2023-05-23T12:27:15;100795.00;;;28.10
63220;BMP180;49320;52.512;13.448;2023-05-23T12:29:49;100798.00;;;28.10
63220;BMP180;49320;52.512;13.448;2023-05-23T12:32:18;100799.00;;;28.00
63220;BMP180;49320;52.512;13.448;2023-05-23T12:34:45;100803.00;;;27.90
63220;BMP180;49320;52.512;13.448;2023-05-23T12:37:12;100799.00;;;27.90
63220;BMP180;49320;52.512;13.448;2023-05-23T12:39:43;100803.00;;;27.80
63220;BMP180;49320;52.512;13.448;2023-05-23T12:42:11;100797.00;;;27.90
63220;BMP180;49320;52.512;13.448;2023-05-23T12:44:40;100800.00;;;27.90
63220;BMP180;49320;52.512;13.448;2023-05-23T12:47:09;100795.00;;;27.90
63220;BMP180;49320;52.512;13.448;2023-05-23T12:49:38;100797.00;;;27.80
63220;BMP180;49320;52.512;13.448;2023-05-23T12:52:06;100812.00;;;27.80
63220;BMP180;49320;52.512;13.448;2023-05-23T12:54:33;100810.00;;;27.70
63220;BMP180;49320;52.512;13.448;2023-05-23T12:56:59;100812.00;;;27.60
63220;BMP180;49320;52.512;13.448;2023-05-23T12:59:26;100812.00;;;27.60
63220;BMP180;49320;52.512;13.448;2023-05-23T13:01:54;100814.00;;;27.60
63220;BMP180;49320;52.512;13.448;2023-05-23T13:04:21;100810.00;;;27.50
63220;BMP180;49320;52.512;13.448;2023-05-23T13:06:48;100820.00;;;27.40
63220;BMP180;49320;52.512;13.448;2023-05-23T13:09:14;100821.00;;;27.30
63220;BMP180;49320;52.512;13.448;2023-05-23T13:11:41;100823.00;;;27.20
63220;BMP180;49320;52.512;13.448;2023-05-23T13:14:08;100831.00;;;27.10
63220;BMP180;49320;52.512;13.448;2023-05-23T13:16:35;100815.00;;;27.00
63220;BMP180;49320;52.512;13.448;2023-05-23T13:19:02;100822.00;;;27.00
63220;BMP180;49320;52.512;13.448;2023-05-23T13:21:29;100820.00;;;27.10
63220;BMP180;49320;52.512;13.448;2023-05-23T13:23:57;100820.00;;;27.10
63220;BMP180;49320;52.512;13.448;2023-05-23T13:26:24;100833.00;;;27.10
63220;BMP180;49320;52.512;13.448;2023-05-23T13:28:52;100828.00;;;27.00
63220;BMP180;49320;52.512;13.448;2023-05-23T13:31:19;100824.00;;;27.00
63220;BMP180;49320;52.512;13.448;2023-05-23T13:33:46;100822.00;;;26.90
63220;BMP180;49320;52.512;13.448;2023-05-23T13:36:13;100829.00;;;26.90
63220;BMP180;49320;52.512;13.448;2023-05-23T13:38:40;100836.00;;;26.70
63220;BMP180;49320;52.512;13.448;2023-05-23T13:41:06;100838.00;;;26.60
63220;BMP180;49320;52.512;13.448;2023-05-23T13:43:33;100844.00;;;26.50
63220;BMP180;49320;52.512;13.448;2023-05-23T13:46:00;100844.00;;;26.40
63220;BMP180;49320;52.512;13.448;2023-05-23T13:48:28;100854.00;;;26.20
63220;BMP180;49320;52.512;13.448;2023-05-23T13:50:55;100855.00;;;26.10
63220;BMP180;49320;52.512;13.448;2023-05-23T13:53:22;100863.00;;;26.00
63220;BMP180;49320;52.512;13.448;2023-05-23T13:55:49;100849.00;;;25.90
63220;BMP180;49320;52.512;13.448;2023-05-23T13:58:16;100862.00;;;25.90
63220;BMP180;49320;52.512;13.448;2023-05-23T14:00:43;100870.00;;;25.90
63220;BMP180;49320;52.512;13.448;2023-05-23T14:03:10;100859.00;;;25.80